• Join FlightAware (Why Join?)
  • Login
  • US Flag 
04:29AM EDT


 

Airport Tracker/Info


-or-


 

Live Flight TrackerFlight Track Log ✈ THY2751 ✈ 01-May-2012 ✈ LTCI / VAN - LTBA / IST

Flight Track Log - Related Links

Times and Time Zones

All times are in EDT time to prevent confusion due to time zone crossing. See the THY2751 flight status page for this flight to view local times or setup timezone preferences in your user account.

Time Position Orientation Groundspeed Altitude Reporting Facility
EDT Latitude Longitude Course Direction KTS MPH feet Rate Location/Type
08:34AM 38.4767 43.2975 287° West  Level Estimated
08:35AM 38.5104 43.1581 287° West  Level Estimated
08:36AM 38.5440 43.0185 287° West  Level Estimated
08:37AM 38.5774 42.8788 287° West  Level Estimated
08:38AM 38.6107 42.7391 287° West  Level Estimated
08:39AM 38.6438 42.5991 287° West  Level Estimated
08:40AM 38.6767 42.4591 287° West  Level Estimated
08:41AM 38.7095 42.3189 287° West  Level Estimated
08:42AM 38.7421 42.1786 287° West  Level Estimated
08:43AM 38.7745 42.0381 286° West  Level Estimated
08:44AM 38.8067 41.8975 286° West  Level Estimated
08:45AM 38.8388 41.7568 286° West  Level Estimated
08:46AM 38.8707 41.6160 286° West  Level Estimated
08:47AM 38.9025 41.4751 286° West  Level Estimated
08:48AM 38.9340 41.3340 286° West  Level Estimated
08:49AM 38.9654 41.1928 286° West  Level Estimated
08:50AM 38.9967 41.0514 286° West  Level Estimated
08:51AM 39.0277 40.9100 286° West  Level Estimated
08:52AM 39.0586 40.7684 286° West  Level Estimated
08:53AM 39.0893 40.6267 286° West  Level Estimated
08:54AM 39.1199 40.4849 285° West  Level Estimated
08:55AM 39.1503 40.3430 285° West  Level Estimated
08:56AM 39.1805 40.2009 285° West  Level Estimated
08:57AM 39.2105 40.0587 285° West  Level Estimated
08:58AM 39.2404 39.9164 285° West  Level Estimated
08:59AM 39.2701 39.7740 285° West  Level Estimated
09:00AM 39.2996 39.6314 285° West  Level Estimated
09:01AM 39.3289 39.4887 285° West  Level Estimated
09:02AM 39.3581 39.3460 285° West  Level Estimated
09:03AM 39.3871 39.2030 285° West  Level Estimated
09:04AM 39.4159 39.0600 285° West  Level Estimated
09:05AM 39.4445 38.9169 284° West  Level Estimated
09:06AM 39.4730 38.7736 284° West  Level Estimated
09:07AM 39.5013 38.6302 284° West  Level Estimated
09:08AM 39.5294 38.4867 284° West  Level Estimated
09:09AM 39.5573 38.3431 284° West  Level Estimated
09:10AM 39.5851 38.1994 284° West  Level Estimated
09:11AM 39.6127 38.0555 284° West  Level Estimated
09:12AM 39.6401 37.9116 284° West  Level Estimated
09:13AM 39.6673 37.7675 284° West  Level Estimated
09:14AM 39.6943 37.6233 284° West  Level Estimated
09:15AM 39.7212 37.4790 284° West  Level Estimated
09:16AM 39.7479 37.3346 283° West  Level Estimated
09:17AM 39.7744 37.1901 283° West  Level Estimated
09:18AM 39.8007 37.0455 283° West  Level Estimated
09:19AM 39.8269 36.9007 283° West  Level Estimated
09:20AM 39.8529 36.7559 283° West  Level Estimated
09:21AM 39.8787 36.6109 283° West  Level Estimated
09:22AM 39.9043 36.4658 283° West  Level Estimated
09:23AM 39.9297 36.3207 283° West  Level Estimated
09:24AM 39.9549 36.1754 283° West  Level Estimated
09:25AM 39.9800 36.0300 283° West  Level Estimated
09:26AM 40.0049 35.8845 283° West  Level Estimated
09:27AM 40.0296 35.7389 282° West  Level Estimated
09:28AM 40.0541 35.5932 282° West  Level Estimated
09:29AM 40.0785 35.4473 282° West  Level Estimated
09:30AM 40.1026 35.3014 282° West  Level Estimated
09:31AM 40.1266 35.1554 282° West  Level Estimated
09:32AM 40.1504 35.0093 282° West  Level Estimated
09:33AM 40.1740 34.8630 282° West  Level Estimated
09:34AM 40.1974 34.7167 282° West  Level Estimated
09:35AM 40.2207 34.5703 282° West  Level Estimated
09:36AM 40.2437 34.4238 282° West  Level Estimated
09:37AM 40.2666 34.2771 282° West  Level Estimated
09:38AM 40.2893 34.1304 281° West  Level Estimated
09:39AM 40.3118 33.9836 281° West  Level Estimated
09:40AM 40.3341 33.8367 281° West  Level Estimated
09:41AM 40.3562 33.6896 281° West  Level Estimated
09:42AM 40.3781 33.5425 281° West  Level Estimated
09:43AM 40.3999 33.3953 281° West  Level Estimated
09:44AM 40.4215 33.2480 281° West  Level Estimated
09:45AM 40.4428 33.1006 281° West  Level Estimated
09:46AM 40.4640 32.9531 281° West  Level Estimated
09:47AM 40.4850 32.8055 281° West  Level Estimated
09:48AM 40.5058 32.6578 280° West  Level Estimated
09:49AM 40.5265 32.5101 280° West  Level Estimated
09:50AM 40.5469 32.3622 280° West  Level Estimated
09:51AM 40.5672 32.2143 280° West  Level Estimated
09:52AM 40.5872 32.0662 280° West  Level Estimated
09:53AM 40.6071 31.9181 280° West  Level Estimated
09:54AM 40.6268 31.7699 280° West  Level Estimated
09:55AM 40.6463 31.6216 280° West  Level Estimated
09:56AM 40.6656 31.4732 280° West  Level Estimated
09:57AM 40.6847 31.3247 280° West  Level Estimated
09:58AM 40.7036 31.1762 279° West  Level Estimated
09:59AM 40.7224 31.0275 279° West  Level Estimated
10:00AM 40.7409 30.8788 279° West  Level Estimated
10:01AM 40.7592 30.7300 279° West  Level Estimated
10:02AM 40.7774 30.5811 279° West  Level Estimated
10:03AM 40.7954 30.4321 279° West  Level Estimated
10:04AM 40.8131 30.2831 279° West  Level Estimated
10:05AM 40.8307 30.1339 279° West  Level Estimated
10:06AM 40.8481 29.9847 279° West  Level Estimated
10:07AM 40.8653 29.8354 279° West  Level Estimated
10:08AM 40.8824 29.6861 279° West  Level Estimated
10:09AM 40.8992 29.5366 278° West  Level Estimated
10:10AM 40.9158 29.3871 278° West  Level Estimated
10:11AM 40.9322 29.2375 278° West  Level Estimated
10:12AM 40.9485 29.0879 278° West  Level Estimated
10:13AM 40.9645 28.9381 278° West  Level Estimated
10:14AM 40.9803 28.7883 98° East  Level Estimated
10:15AM 40.9645 28.9381 278° West  Level Estimated
10:16AM 40.9803 28.7883 98° East  Level Estimated
10:17AM 40.9645 28.9381 278° West  Level Estimated
10:18AM 40.9803 28.7883 98° East  Level Estimated
10:19AM 40.9645 28.9381 278° West  Level Estimated
10:20AM 40.9803 28.7883 98° East  Level Estimated
10:21AM 40.9645 28.9381 278° West  Level Estimated
10:22AM 40.9803 28.7883 98° East  Level Estimated
10:23AM 40.9645 28.9381 278° West  Level Estimated
10:24AM 40.9803 28.7883 98° East  Level Estimated
10:25AM 40.9645 28.9381 278° West  Level Estimated
10:26AM 40.9803 28.7883 98° East  Level Estimated
10:27AM 40.9645 28.9381 278° West  Level Estimated
10:28AM 40.9803 28.7883 98° East  Level Estimated
10:29AM 40.9645 28.9381 98° East  Level Estimated